Terminal Aerodrome Forecast
Issued by NWS

Home | Current Version | Previous Version | Text Only | Print | Product List | Glossary On
Versions: 1 2 3 4 5 6 7 8 9 10 11 12 13 14 15 16
767
FTUS44 KCRP 181735
TAFLRD
TAF
KLRD 181735Z 1818/1918 33006KT P6SM FEW018
     FM182000 35018G27KT P6SM SKC
     FM190600 02013KT P6SM SKC=

USA.gov is the U.S. government's official web portal to all federal, state and local government web resources and services.